createdAt,value
2022-12-31T00:01:26.772Z,22.33
2022-12-31T00:03:54.470Z,21.48
2022-12-31T00:06:24.521Z,22.40
2022-12-31T00:08:53.076Z,21.83
2022-12-31T00:11:21.116Z,21.80
2022-12-31T00:13:48.665Z,21.63
2022-12-31T00:16:27.215Z,21.90
2022-12-31T00:18:59.270Z,21.40
2022-12-31T00:21:30.741Z,21.30
2022-12-31T00:23:58.272Z,21.55
2022-12-31T00:26:28.126Z,21.45
2022-12-31T00:28:56.525Z,21.55
2022-12-31T00:31:31.960Z,21.65
2022-12-31T00:33:59.599Z,21.00
2022-12-31T00:36:38.823Z,20.83
2022-12-31T00:39:08.428Z,21.02
2022-12-31T00:41:35.690Z,20.63
2022-12-31T00:44:03.053Z,20.95
2022-12-31T00:46:30.722Z,21.27
2022-12-31T00:48:57.764Z,20.83
2022-12-31T00:51:27.748Z,20.42
2022-12-31T00:53:56.144Z,20.55
2022-12-31T00:56:25.215Z,20.27
2022-12-31T00:58:52.834Z,20.15
2022-12-31T01:01:27.263Z,20.30
2022-12-31T01:03:58.902Z,20.13
2022-12-31T01:06:26.370Z,20.17
2022-12-31T01:08:55.311Z,20.17
2022-12-31T01:11:23.244Z,20.02
2022-12-31T01:13:53.394Z,19.50
2022-12-31T01:16:23.436Z,19.45
2022-12-31T01:18:51.644Z,19.27
2022-12-31T01:21:19.969Z,18.98
2022-12-31T01:23:47.135Z,18.90
2022-12-31T01:26:16.071Z,19.20
2022-12-31T01:28:43.105Z,18.83
2022-12-31T01:31:12.969Z,19.05
2022-12-31T01:33:40.155Z,18.58
2022-12-31T01:36:28.851Z,18.83
2022-12-31T01:38:57.409Z,18.75
2022-12-31T01:41:35.282Z,18.08
2022-12-31T01:44:11.487Z,18.20
2022-12-31T01:46:46.200Z,18.50
2022-12-31T01:49:16.420Z,18.40
2022-12-31T01:51:49.220Z,18.20
2022-12-31T01:54:18.951Z,18.17
2022-12-31T01:56:48.083Z,18.30
2022-12-31T01:59:18.003Z,18.13
2022-12-31T02:01:46.772Z,17.75
2022-12-31T02:04:14.877Z,18.10
2022-12-31T02:06:59.946Z,18.02
2022-12-31T02:09:27.077Z,17.98
2022-12-31T02:11:54.191Z,18.25
2022-12-31T02:14:34.077Z,18.17
2022-12-31T02:17:03.789Z,17.90
2022-12-31T02:20:24.534Z,17.60
2022-12-31T02:23:42.148Z,17.88
2022-12-31T02:26:37.912Z,17.95
2022-12-31T02:29:38.817Z,17.80
2022-12-31T02:32:37.456Z,18.10
2022-12-31T02:35:22.624Z,18.05
2022-12-31T02:37:53.690Z,17.90
2022-12-31T02:40:22.493Z,18.20
2022-12-31T02:42:55.018Z,17.92
2022-12-31T02:45:31.996Z,18.15
2022-12-31T02:48:06.973Z,17.83
2022-12-31T02:50:42.241Z,18.17
2022-12-31T02:53:24.052Z,18.02
2022-12-31T02:55:58.815Z,18.15
2022-12-31T02:58:52.116Z,18.67
2022-12-31T03:01:45.410Z,18.20
2022-12-31T03:04:32.808Z,18.52
2022-12-31T03:07:02.597Z,18.30
2022-12-31T03:09:29.647Z,18.70
2022-12-31T03:12:15.572Z,18.67
2022-12-31T03:14:42.700Z,18.70
2022-12-31T03:17:09.843Z,18.77
2022-12-31T03:19:55.348Z,18.85
2022-12-31T03:22:28.206Z,19.02
2022-12-31T03:25:23.602Z,18.58
2022-12-31T03:27:51.119Z,18.75
2022-12-31T03:30:20.113Z,18.75
2022-12-31T03:32:48.487Z,18.40
2022-12-31T03:35:19.387Z,18.65
2022-12-31T03:37:47.312Z,18.90
2022-12-31T03:40:15.530Z,18.65
2022-12-31T03:42:42.783Z,19.27
2022-12-31T03:45:10.935Z,19.15
2022-12-31T03:47:38.147Z,19.00
2022-12-31T03:50:06.364Z,19.00
2022-12-31T03:52:33.560Z,18.95
2022-12-31T03:55:02.308Z,19.30
2022-12-31T03:57:30.074Z,19.00
2022-12-31T03:59:57.074Z,19.20
2022-12-31T04:02:28.840Z,19.08
2022-12-31T04:04:56.617Z,19.25
2022-12-31T04:07:24.420Z,19.25
2022-12-31T04:09:51.476Z,18.65
2022-12-31T04:12:18.569Z,18.65
2022-12-31T04:14:45.627Z,18.67
2022-12-31T04:17:12.714Z,19.20
2022-12-31T04:19:39.804Z,19.30
2022-12-31T04:22:06.982Z,18.80
2022-12-31T04:24:33.948Z,19.20
2022-12-31T04:27:07.251Z,19.30
2022-12-31T04:29:34.867Z,19.15
2022-12-31T04:32:02.186Z,18.60
2022-12-31T04:34:29.229Z,18.67
2022-12-31T04:36:56.188Z,18.77
2022-12-31T04:39:23.751Z,18.52
2022-12-31T04:41:51.427Z,19.05
2022-12-31T04:44:18.957Z,18.75
2022-12-31T04:46:45.973Z,18.42
2022-12-31T04:49:13.142Z,18.58
2022-12-31T04:51:40.437Z,18.42
2022-12-31T04:54:07.572Z,18.15
2022-12-31T04:56:36.907Z,18.13
2022-12-31T04:59:07.509Z,17.77
2022-12-31T05:01:34.681Z,17.80
2022-12-31T05:04:01.914Z,18.10
2022-12-31T05:06:28.965Z,17.85
2022-12-31T05:08:56.098Z,18.27
2022-12-31T05:11:23.292Z,17.92
2022-12-31T05:13:50.342Z,17.77
2022-12-31T05:16:17.496Z,17.60
2022-12-31T05:18:44.505Z,17.70
2022-12-31T05:21:18.612Z,17.88
2022-12-31T05:26:12.593Z,17.67
2022-12-31T05:28:39.781Z,17.88
2022-12-31T05:31:06.945Z,18.20
2022-12-31T05:33:34.019Z,17.90
2022-12-31T05:36:01.051Z,17.83
2022-12-31T05:38:28.116Z,18.38
2022-12-31T05:41:06.221Z,18.17
2022-12-31T05:43:34.128Z,18.10
2022-12-31T05:46:02.613Z,18.30
2022-12-31T05:48:30.649Z,18.13
2022-12-31T05:50:57.833Z,18.25
2022-12-31T05:53:24.919Z,18.58
2022-12-31T05:55:52.031Z,18.05
2022-12-31T05:58:19.012Z,18.00
2022-12-31T06:00:46.285Z,18.23
2022-12-31T06:03:13.718Z,18.17
2022-12-31T06:05:45.024Z,18.08
2022-12-31T06:08:13.087Z,18.73
2022-12-31T06:10:42.971Z,18.13
2022-12-31T06:13:10.340Z,18.20
2022-12-31T06:15:39.745Z,18.52
2022-12-31T06:18:06.988Z,18.73
2022-12-31T06:20:36.903Z,18.67
2022-12-31T06:23:04.390Z,18.75
2022-12-31T06:25:31.522Z,18.55
2022-12-31T06:27:58.496Z,18.80
2022-12-31T06:30:25.503Z,18.80
2022-12-31T06:32:52.458Z,18.92
2022-12-31T06:35:19.450Z,18.90
2022-12-31T06:37:46.615Z,18.92
2022-12-31T06:40:13.660Z,18.40
2022-12-31T06:42:42.287Z,18.58
2022-12-31T06:45:09.583Z,19.17
2022-12-31T06:47:36.591Z,18.38
2022-12-31T06:50:03.761Z,18.60
2022-12-31T06:52:30.792Z,18.85
2022-12-31T06:54:58.554Z,18.45
2022-12-31T06:57:25.853Z,18.05
2022-12-31T06:59:53.076Z,17.98
2022-12-31T07:02:57.578Z,18.42
2022-12-31T07:05:27.371Z,17.85
2022-12-31T07:08:21.972Z,18.90
2022-12-31T07:11:02.149Z,18.77
2022-12-31T07:13:44.088Z,17.95
2022-12-31T07:16:16.838Z,19.02
2022-12-31T07:18:55.133Z,18.38
2022-12-31T07:21:38.216Z,17.75
2022-12-31T07:24:10.279Z,17.50
2022-12-31T07:26:54.258Z,17.67
2022-12-31T07:29:26.465Z,17.52
2022-12-31T07:32:37.584Z,17.90
2022-12-31T07:35:35.490Z,17.65
2022-12-31T07:38:15.960Z,17.95
2022-12-31T07:41:07.428Z,18.00
2022-12-31T07:43:44.012Z,18.08
2022-12-31T07:46:33.631Z,18.05
2022-12-31T07:49:00.943Z,17.75
2022-12-31T07:51:28.450Z,17.60
2022-12-31T07:53:55.498Z,17.83
2022-12-31T07:56:22.436Z,17.92
2022-12-31T07:59:14.024Z,17.75
2022-12-31T08:01:55.203Z,17.00
2022-12-31T08:04:24.929Z,16.98
2022-12-31T08:07:04.094Z,17.08
2022-12-31T08:09:37.693Z,17.33
2022-12-31T08:12:04.870Z,19.35
2022-12-31T08:14:35.822Z,17.55
2022-12-31T08:17:03.106Z,17.48
2022-12-31T08:19:32.719Z,17.20
2022-12-31T08:22:24.156Z,17.08
2022-12-31T08:25:09.777Z,17.50
2022-12-31T08:27:50.850Z,17.00
2022-12-31T08:30:21.028Z,17.10
2022-12-31T08:33:11.520Z,19.10
2022-12-31T08:35:38.480Z,16.77
2022-12-31T08:38:28.464Z,16.92
2022-12-31T08:41:16.442Z,16.92
2022-12-31T08:44:06.416Z,18.33
2022-12-31T08:47:00.006Z,16.80
2022-12-31T08:49:28.481Z,17.20
2022-12-31T08:51:55.917Z,17.90
2022-12-31T08:54:23.134Z,15.50
2022-12-31T08:57:27.876Z,16.10
2022-12-31T09:00:16.369Z,16.60
2022-12-31T09:02:58.368Z,16.55
2022-12-31T09:06:03.380Z,16.83
2022-12-31T09:08:35.521Z,16.55
2022-12-31T09:11:22.789Z,16.80
2022-12-31T09:14:08.258Z,17.38
2022-12-31T09:17:11.586Z,16.60
2022-12-31T09:19:38.523Z,16.15
2022-12-31T09:22:05.597Z,17.13
2022-12-31T09:24:32.862Z,16.58
2022-12-31T09:27:12.047Z,16.77
2022-12-31T09:29:57.713Z,17.10
2022-12-31T09:32:37.322Z,15.52
2022-12-31T09:35:28.412Z,15.30
2022-12-31T09:38:04.185Z,15.05
2022-12-31T09:41:14.114Z,15.15
2022-12-31T09:44:02.265Z,15.43
2022-12-31T09:46:51.290Z,14.98
2022-12-31T09:49:23.979Z,15.10
2022-12-31T09:52:17.889Z,15.27
2022-12-31T09:54:55.701Z,15.33
2022-12-31T09:57:48.251Z,15.60
2022-12-31T10:00:28.963Z,16.15
2022-12-31T10:03:20.751Z,15.05
2022-12-31T10:05:50.725Z,15.30
2022-12-31T10:08:38.899Z,15.93
2022-12-31T10:11:07.089Z,15.15
2022-12-31T10:13:43.183Z,17.30
2022-12-31T10:16:34.724Z,15.63
2022-12-31T10:19:13.337Z,16.92
2022-12-31T10:22:11.123Z,14.75
2022-12-31T10:25:39.580Z,15.85
2022-12-31T10:28:15.095Z,14.90
2022-12-31T10:31:11.234Z,16.38
2022-12-31T10:33:51.513Z,17.20
2022-12-31T10:36:20.997Z,16.35
2022-12-31T10:39:24.010Z,20.77
2022-12-31T10:41:54.115Z,14.93
2022-12-31T10:44:35.857Z,14.60
2022-12-31T10:47:30.345Z,14.35
2022-12-31T10:50:25.623Z,14.68
2022-12-31T10:53:18.226Z,14.52
2022-12-31T10:56:22.491Z,14.63
2022-12-31T10:59:07.900Z,14.43
2022-12-31T11:01:53.133Z,14.32
2022-12-31T11:04:35.243Z,19.05
2022-12-31T11:07:11.161Z,15.40
2022-12-31T11:09:41.201Z,13.95
2022-12-31T11:12:22.994Z,14.07
2022-12-31T11:15:11.772Z,14.60
2022-12-31T11:17:51.934Z,14.10
2022-12-31T11:21:04.492Z,13.77
2022-12-31T11:24:12.549Z,13.57
2022-12-31T11:26:56.591Z,14.10
2022-12-31T11:29:48.464Z,13.93
2022-12-31T11:32:18.554Z,13.07
2022-12-31T11:34:48.234Z,14.00
2022-12-31T11:37:37.382Z,17.13
2022-12-31T11:40:36.808Z,13.65
2022-12-31T11:43:24.833Z,14.93
2022-12-31T11:46:21.587Z,13.90
2022-12-31T11:49:00.889Z,14.20
2022-12-31T11:52:01.599Z,13.20
2022-12-31T11:54:32.628Z,14.43
2022-12-31T11:57:30.112Z,14.18
2022-12-31T12:00:06.596Z,13.90
2022-12-31T12:02:37.581Z,13.43
2022-12-31T12:05:10.979Z,13.00
2022-12-31T12:07:38.671Z,12.85
2022-12-31T12:10:35.603Z,13.18
2022-12-31T12:13:13.776Z,13.25
2022-12-31T12:15:45.756Z,12.82
2022-12-31T12:18:40.934Z,12.70
2022-12-31T12:21:16.743Z,12.75
2022-12-31T12:24:05.275Z,12.82
2022-12-31T12:26:40.035Z,12.93
2022-12-31T12:29:30.160Z,13.10
2022-12-31T12:32:15.074Z,12.98
2022-12-31T12:34:49.150Z,12.75
2022-12-31T12:37:30.159Z,13.00
2022-12-31T12:40:03.529Z,13.02
2022-12-31T12:42:31.312Z,13.17
2022-12-31T12:45:14.228Z,12.85
2022-12-31T12:47:46.188Z,13.10
2022-12-31T12:50:42.251Z,13.18
2022-12-31T12:53:44.145Z,12.88
2022-12-31T12:56:20.043Z,13.05
2022-12-31T12:59:17.481Z,12.88
2022-12-31T13:02:25.858Z,12.90
2022-12-31T13:05:26.026Z,12.98
2022-12-31T13:08:06.820Z,13.05
2022-12-31T13:10:51.417Z,14.05
2022-12-31T13:16:02.585Z,13.18
2022-12-31T13:18:49.778Z,13.35
2022-12-31T13:21:30.805Z,13.48
2022-12-31T13:24:24.242Z,13.63
2022-12-31T13:27:04.859Z,13.20
2022-12-31T13:29:34.619Z,13.70
2022-12-31T13:32:04.925Z,13.48
2022-12-31T13:34:37.332Z,13.98
2022-12-31T13:37:17.407Z,13.63
2022-12-31T13:39:47.196Z,14.85
2022-12-31T13:42:32.809Z,14.02
2022-12-31T13:45:04.304Z,13.50
2022-12-31T13:47:42.245Z,13.38
2022-12-31T13:50:38.356Z,13.10
2022-12-31T13:53:38.693Z,13.63
2022-12-31T13:56:22.075Z,13.10
2022-12-31T13:59:01.763Z,16.17
2022-12-31T14:01:58.299Z,14.38
2022-12-31T14:04:31.713Z,13.48
2022-12-31T14:07:14.936Z,13.25
2022-12-31T14:09:42.612Z,13.65
2022-12-31T14:12:24.409Z,13.30
2022-12-31T14:15:07.747Z,13.27
2022-12-31T14:17:47.825Z,14.32
2022-12-31T14:20:35.897Z,13.73
2022-12-31T14:23:34.087Z,13.75
2022-12-31T14:26:22.817Z,13.85
2022-12-31T14:29:12.435Z,14.00
2022-12-31T14:31:48.673Z,13.90
2022-12-31T14:34:33.711Z,16.42
2022-12-31T14:37:23.734Z,17.10
2022-12-31T14:40:11.961Z,14.90
2022-12-31T14:42:38.896Z,14.25
2022-12-31T14:45:34.475Z,13.98
2022-12-31T14:48:22.302Z,18.60
2022-12-31T14:50:49.911Z,15.57
2022-12-31T14:53:25.690Z,14.32
2022-12-31T14:56:05.455Z,13.88
2022-12-31T14:58:40.389Z,14.38
2022-12-31T15:01:22.422Z,14.52
2022-12-31T15:03:52.364Z,14.85
2022-12-31T15:06:48.303Z,14.30
2022-12-31T15:10:08.752Z,14.32
2022-12-31T15:13:01.942Z,14.82
2022-12-31T15:16:10.996Z,14.88
2022-12-31T15:19:05.024Z,14.73
2022-12-31T15:22:04.252Z,15.25
2022-12-31T15:24:31.348Z,14.75
2022-12-31T15:27:01.729Z,14.55
2022-12-31T15:29:43.453Z,14.40
2022-12-31T15:32:39.019Z,14.50
2022-12-31T15:35:21.328Z,14.45
2022-12-31T15:38:07.917Z,14.95
2022-12-31T15:40:52.383Z,14.50
2022-12-31T15:45:55.303Z,14.73
2022-12-31T15:48:31.274Z,14.95
2022-12-31T15:51:01.205Z,15.40
2022-12-31T15:53:34.806Z,15.07
2022-12-31T15:56:02.678Z,17.33
2022-12-31T15:58:38.258Z,15.93
2022-12-31T16:01:15.918Z,15.68
2022-12-31T16:03:46.044Z,15.07
2022-12-31T16:06:15.295Z,15.57
2022-12-31T16:08:47.847Z,14.65
2022-12-31T16:11:15.915Z,14.90
2022-12-31T16:13:46.300Z,15.40
2022-12-31T16:16:25.255Z,15.10
2022-12-31T16:18:53.306Z,14.98
2022-12-31T16:21:26.295Z,15.10
2022-12-31T16:23:55.793Z,17.45
2022-12-31T16:26:27.964Z,18.00
2022-12-31T16:29:00.258Z,17.88
2022-12-31T16:31:29.310Z,16.90
2022-12-31T16:34:13.873Z,16.38
2022-12-31T16:39:35.559Z,15.73
2022-12-31T16:42:14.825Z,15.73
2022-12-31T16:44:42.077Z,15.20
2022-12-31T16:47:15.435Z,15.68
2022-12-31T16:49:43.213Z,14.98
2022-12-31T16:52:25.989Z,15.80
2022-12-31T16:54:54.647Z,15.18
2022-12-31T16:57:25.119Z,15.55
2022-12-31T17:00:04.793Z,14.88
2022-12-31T17:02:45.763Z,19.60
2022-12-31T17:05:24.274Z,22.50
2022-12-31T17:07:51.364Z,19.00
2022-12-31T17:10:36.308Z,17.70
2022-12-31T17:13:28.888Z,15.57
2022-12-31T17:15:58.549Z,15.77
2022-12-31T17:18:37.390Z,15.90
2022-12-31T17:21:08.865Z,16.08
2022-12-31T17:23:38.490Z,15.73
2022-12-31T17:26:11.866Z,19.33
2022-12-31T17:28:46.642Z,19.30
2022-12-31T17:31:40.402Z,16.73
2022-12-31T17:34:21.342Z,16.65
2022-12-31T17:36:54.661Z,16.90
2022-12-31T17:39:23.989Z,16.10
2022-12-31T17:41:55.621Z,16.40
2022-12-31T17:44:26.861Z,16.45
2022-12-31T17:46:54.262Z,17.75
2022-12-31T17:49:29.831Z,17.38
2022-12-31T17:51:57.155Z,17.42
2022-12-31T17:54:24.153Z,17.17
2022-12-31T17:56:52.696Z,16.67
2022-12-31T17:59:25.276Z,18.98
2022-12-31T18:01:52.563Z,18.33
2022-12-31T18:04:21.509Z,17.25
2022-12-31T18:06:48.428Z,18.33
2022-12-31T18:09:16.512Z,19.38
2022-12-31T18:11:43.713Z,16.52
2022-12-31T18:14:14.754Z,16.85
2022-12-31T18:16:42.136Z,15.70
2022-12-31T18:19:45.658Z,16.48
2022-12-31T18:22:03.142Z,15.77
2022-12-31T18:24:30.147Z,17.67
2022-12-31T18:26:57.130Z,18.48
2022-12-31T18:29:24.201Z,16.02
2022-12-31T18:31:51.412Z,16.77
2022-12-31T18:34:19.154Z,16.58
2022-12-31T18:36:46.682Z,16.10
2022-12-31T18:39:13.655Z,15.82
2022-12-31T18:41:45.856Z,15.75
2022-12-31T18:44:15.247Z,15.55
2022-12-31T18:46:43.176Z,15.88
2022-12-31T18:49:10.163Z,16.20
2022-12-31T18:51:37.224Z,16.65
2022-12-31T18:54:05.072Z,16.90
2022-12-31T18:56:32.176Z,16.38
2022-12-31T18:58:59.949Z,16.67
2022-12-31T19:01:35.377Z,16.90
2022-12-31T19:04:13.459Z,16.90
2022-12-31T19:06:40.822Z,18.20
2022-12-31T19:09:23.699Z,18.83
2022-12-31T19:11:54.898Z,17.60
2022-12-31T19:14:26.778Z,17.25
2022-12-31T19:16:54.719Z,17.98
2022-12-31T19:19:21.688Z,18.92
2022-12-31T19:21:48.680Z,20.95
2022-12-31T19:24:20.715Z,18.52
2022-12-31T19:26:48.392Z,19.58
2022-12-31T19:29:21.588Z,19.45
2022-12-31T19:31:49.124Z,20.13
2022-12-31T19:34:16.736Z,19.17
2022-12-31T19:36:44.384Z,19.13
2022-12-31T19:39:21.371Z,18.52
2022-12-31T19:41:54.643Z,19.50
2022-12-31T19:44:25.955Z,19.63
2022-12-31T19:46:52.916Z,20.33
2022-12-31T19:49:19.933Z,21.33
2022-12-31T19:51:46.887Z,20.13
2022-12-31T19:54:13.944Z,19.77
2022-12-31T19:56:40.936Z,19.73
2022-12-31T19:59:09.745Z,20.58
2022-12-31T20:01:37.102Z,20.45
2022-12-31T20:04:04.457Z,19.77
2022-12-31T20:06:31.636Z,20.25
2022-12-31T20:08:58.647Z,20.13
2022-12-31T20:11:26.015Z,20.02
2022-12-31T20:13:54.105Z,20.17
2022-12-31T20:16:24.161Z,20.38
2022-12-31T20:18:51.628Z,19.75
2022-12-31T20:21:21.890Z,19.45
2022-12-31T20:23:50.494Z,20.17
2022-12-31T20:26:18.548Z,20.05
2022-12-31T20:28:45.591Z,26.00
2022-12-31T20:31:15.665Z,23.23
2022-12-31T20:33:43.231Z,21.75
2022-12-31T20:36:13.562Z,20.77
2022-12-31T20:38:41.159Z,25.98
2022-12-31T20:41:11.461Z,22.15
2022-12-31T20:43:39.661Z,21.13
2022-12-31T20:46:16.242Z,19.88
2022-12-31T20:48:44.628Z,20.52
2022-12-31T20:51:13.012Z,21.60
2022-12-31T20:53:40.105Z,20.45
2022-12-31T20:56:08.414Z,20.48
2022-12-31T20:58:35.897Z,20.13
2022-12-31T21:01:06.599Z,20.00
2022-12-31T21:04:05.023Z,20.77
2022-12-31T21:06:26.390Z,54.53
2022-12-31T21:08:55.157Z,38.10
2022-12-31T21:11:41.075Z,25.85
2022-12-31T21:14:08.415Z,22.38
2022-12-31T21:16:35.533Z,30.38
2022-12-31T21:19:02.900Z,24.75
2022-12-31T21:21:29.908Z,21.48
2022-12-31T21:23:57.042Z,22.40
2022-12-31T21:26:24.043Z,22.90
2022-12-31T21:28:51.031Z,22.30
2022-12-31T21:31:18.141Z,21.95
2022-12-31T21:33:47.116Z,29.63
2022-12-31T21:36:14.877Z,31.65
2022-12-31T21:38:42.241Z,24.67
2022-12-31T21:41:33.552Z,21.10
2022-12-31T21:44:01.614Z,21.23
2022-12-31T21:46:29.280Z,21.00
2022-12-31T21:48:58.592Z,21.13
2022-12-31T21:51:25.966Z,20.50
2022-12-31T21:53:53.132Z,20.80
2022-12-31T21:56:21.386Z,19.95
2022-12-31T21:59:12.541Z,19.15
2022-12-31T22:01:58.856Z,18.48
2022-12-31T22:05:00.198Z,17.85
2022-12-31T22:07:12.789Z,16.90
2022-12-31T22:09:39.922Z,16.70
2022-12-31T22:12:07.100Z,16.88
2022-12-31T22:14:34.080Z,16.30
2022-12-31T22:17:01.053Z,16.00
2022-12-31T22:19:27.978Z,16.30
2022-12-31T22:21:54.983Z,16.55
2022-12-31T22:24:21.971Z,16.05
2022-12-31T22:26:48.887Z,16.20
2022-12-31T22:29:15.806Z,16.38
2022-12-31T22:31:42.901Z,16.80
2022-12-31T22:34:09.987Z,16.63
2022-12-31T22:36:36.964Z,16.25
2022-12-31T22:39:04.128Z,16.75
2022-12-31T22:41:31.195Z,16.48
2022-12-31T22:44:04.190Z,16.65
2022-12-31T22:46:32.396Z,15.55
2022-12-31T22:49:00.741Z,15.68
2022-12-31T22:51:57.397Z,15.15
2022-12-31T22:54:15.743Z,15.88
2022-12-31T22:56:42.777Z,15.40
2022-12-31T22:59:09.911Z,16.45
2022-12-31T23:01:37.400Z,21.48
2022-12-31T23:04:04.821Z,19.17
2022-12-31T23:06:32.197Z,26.42
2022-12-31T23:09:34.849Z,46.80
2022-12-31T23:12:02.979Z,32.63
2022-12-31T23:14:48.480Z,19.73
2022-12-31T23:17:40.310Z,22.52
2022-12-31T23:20:30.491Z,19.80
2022-12-31T23:23:12.920Z,19.92
2022-12-31T23:25:49.288Z,20.08
2022-12-31T23:28:21.613Z,24.42
2022-12-31T23:30:48.896Z,21.88
2022-12-31T23:33:19.081Z,20.70
2022-12-31T23:35:46.407Z,19.85
2022-12-31T23:38:14.083Z,20.73
2022-12-31T23:40:41.087Z,21.23
2022-12-31T23:43:08.820Z,22.20
2022-12-31T23:45:36.459Z,19.15
2022-12-31T23:48:03.655Z,21.48
2022-12-31T23:50:30.665Z,17.70
2022-12-31T23:52:57.644Z,16.42
2022-12-31T23:55:24.681Z,16.23
2022-12-31T23:57:51.641Z,16.70
